Time,TemperatureF,DewpointF,PressureIn,WindDirection,WindDirectionDegrees,WindSpeedMPH,WindSpeedGustMPH,Humidity,HourlyPrecipIn,Conditions,Clouds,dailyrainin,SoftwareType,DateUTC
2013-02-11 00:02:00,36.0,31.0,-100.00,WSW,250,2.0,7.0,84,0.00,,,-99.99,,2013-02-11 06:02:00,
2013-02-11 00:11:00,36.0,31.0,-100.00,WSW,250,2.0,7.0,84,0.00,,,-99.99,,2013-02-11 06:11:00,
2013-02-11 00:21:00,36.0,31.0,-100.00,WSW,250,2.0,7.0,84,0.00,,,-99.99,,2013-02-11 06:21:00,
2013-02-11 00:52:00,35.0,31.0,-100.00,SSW,200,2.0,6.0,84,0.00,,,-99.99,,2013-02-11 06:52:00,
2013-02-11 01:01:00,35.0,31.0,-100.00,SSW,200,2.0,6.0,84,0.00,,,-99.99,,2013-02-11 07:01:00,
2013-02-11 01:11:00,35.0,31.0,-100.00,SSW,200,2.0,6.0,84,0.00,,,-99.99,,2013-02-11 07:11:00,
2013-02-11 01:21:00,35.0,31.0,-100.00,SSW,200,2.0,6.0,84,0.00,,,-99.99,,2013-02-11 07:21:00,
2013-02-11 01:52:00,35.0,30.0,-100.00,WSW,240,1.0,9.0,84,0.00,,,-99.99,,2013-02-11 07:52:00,
2013-02-11 02:01:00,35.0,30.0,-100.00,WSW,240,1.0,9.0,84,0.00,,,-99.99,,2013-02-11 08:01:00,
2013-02-11 02:11:00,35.0,30.0,-100.00,WSW,240,1.0,9.0,84,0.00,,,-99.99,,2013-02-11 08:11:00,
2013-02-11 02:21:00,35.0,30.0,-100.00,WSW,240,1.0,9.0,84,0.00,,,-99.99,,2013-02-11 08:21:00,
2013-02-11 02:52:00,34.0,30.0,-100.00,WSW,240,4.0,11.0,84,0.00,,,-99.99,,2013-02-11 08:52:00,
2013-02-11 03:01:00,34.0,30.0,-100.00,WSW,240,4.0,11.0,84,0.00,,,-99.99,,2013-02-11 09:01:00,
2013-02-11 03:12:00,34.0,30.0,-100.00,WSW,240,4.0,11.0,84,0.00,,,-99.99,,2013-02-11 09:12:00,
2013-02-11 03:21:00,34.0,30.0,-100.00,WSW,240,4.0,11.0,84,0.00,,,-99.99,,2013-02-11 09:21:00,
2013-02-11 03:52:00,33.0,29.0,-100.00,SW,215,1.0,11.0,84,0.00,,,-99.99,,2013-02-11 09:52:00,
2013-02-11 04:01:00,33.0,29.0,-100.00,SW,215,1.0,11.0,84,0.00,,,-99.99,,2013-02-11 10:01:00,
2013-02-11 04:11:00,33.0,29.0,-100.00,SW,215,1.0,11.0,84,0.00,,,-99.99,,2013-02-11 10:11:00,
2013-02-11 04:21:00,33.0,29.0,-100.00,SW,215,1.0,11.0,84,0.00,,,-99.99,,2013-02-11 10:21:00,
2013-02-11 04:52:00,32.0,28.0,-100.00,WSW,245,1.0,9.0,84,0.43,,,-99.99,,2013-02-11 10:52:00,
2013-02-11 05:01:00,32.0,28.0,-100.00,WSW,245,1.0,9.0,84,0.43,,,-99.99,,2013-02-11 11:01:00,
2013-02-11 05:11:00,32.0,28.0,-100.00,WSW,245,1.0,9.0,84,0.43,,,-99.99,,2013-02-11 11:11:00,
2013-02-11 05:22:00,32.0,28.0,-100.00,WSW,245,1.0,9.0,84,0.43,,,-99.99,,2013-02-11 11:22:00,
2013-02-11 05:52:00,32.0,28.0,-100.00,WSW,245,2.0,7.0,84,0.03,,,-99.99,,2013-02-11 11:52:00,
2013-02-11 06:03:00,32.0,28.0,-100.00,WSW,245,2.0,7.0,84,0.03,,,-99.99,,2013-02-11 12:03:00,
2013-02-11 06:12:00,32.0,28.0,-100.00,WSW,245,2.0,7.0,84,0.03,,,-99.99,,2013-02-11 12:12:00,
2013-02-11 06:22:00,32.0,28.0,-100.00,WSW,245,2.0,7.0,84,0.03,,,-99.99,,2013-02-11 12:22:00,
2013-02-11 06:30:00,32.0,28.0,-100.00,SW,230,4.0,13.0,84,0.58,,,-99.99,,2013-02-11 12:30:00,
2013-02-11 06:52:00,32.0,28.0,-100.00,SW,230,4.0,13.0,84,0.58,,,-99.99,,2013-02-11 12:52:00,
2013-02-11 07:02:00,32.0,28.0,-100.00,SW,230,4.0,13.0,84,0.58,,,-99.99,,2013-02-11 13:02:00,
2013-02-11 07:12:00,32.0,28.0,-100.00,SW,230,4.0,13.0,84,0.58,,,-99.99,,2013-02-11 13:12:00,
2013-02-11 07:22:00,32.0,28.0,-100.00,SW,230,4.0,13.0,84,0.58,,,-99.99,,2013-02-11 13:22:00,
2013-02-11 07:30:00,32.0,28.0,-100.00,WNW,285,9.0,18.0,84,0.04,,,-99.99,,2013-02-11 13:30:00,
2013-02-11 07:52:00,32.0,28.0,-100.00,WNW,285,9.0,18.0,84,0.04,,,-99.99,,2013-02-11 13:52:00,
2013-02-11 08:02:00,32.0,28.0,-100.00,WNW,285,9.0,18.0,84,0.04,,,-99.99,,2013-02-11 14:02:00,
2013-02-11 08:11:00,32.0,28.0,-100.00,WNW,285,9.0,18.0,84,0.04,,,-99.99,,2013-02-11 14:11:00,
2013-02-11 08:22:00,32.0,28.0,-100.00,WNW,285,9.0,18.0,84,0.04,,,-99.99,,2013-02-11 14:22:00,
2013-02-11 08:31:00,32.0,28.0,-100.00,WNW,300,8.0,21.0,83,0.03,,,-99.99,,2013-02-11 14:31:00,
2013-02-11 08:53:00,32.0,28.0,-100.00,WNW,300,8.0,21.0,83,0.03,,,-99.99,,2013-02-11 14:53:00,
2013-02-11 09:02:00,32.0,28.0,-100.00,WNW,300,8.0,21.0,83,0.03,,,-99.99,,2013-02-11 15:02:00,
2013-02-11 09:11:00,32.0,28.0,-100.00,WNW,300,8.0,21.0,83,0.03,,,-99.99,,2013-02-11 15:11:00,
2013-02-11 09:22:00,32.0,28.0,-100.00,WNW,300,8.0,21.0,83,0.03,,,-99.99,,2013-02-11 15:22:00,
2013-02-11 09:30:00,32.0,25.0,-100.00,WNW,285,7.0,23.0,75,0.00,,,-99.99,,2013-02-11 15:30:00,
2013-02-11 09:52:00,32.0,25.0,-100.00,WNW,285,7.0,23.0,75,0.00,,,-99.99,,2013-02-11 15:52:00,
2013-02-11 10:02:00,32.0,25.0,-100.00,WNW,285,7.0,23.0,75,0.00,,,-99.99,,2013-02-11 16:02:00,
2013-02-11 10:12:00,32.0,25.0,-100.00,WNW,285,7.0,23.0,75,0.00,,,-99.99,,2013-02-11 16:12:00,
2013-02-11 10:22:00,32.0,25.0,-100.00,WNW,285,7.0,23.0,75,0.00,,,-99.99,,2013-02-11 16:22:00,
2013-02-11 10:30:00,32.0,23.0,-100.00,WNW,285,7.0,17.0,69,0.00,,,-99.99,,2013-02-11 16:30:00,
2013-02-11 10:52:00,32.0,23.0,-100.00,WNW,285,7.0,17.0,69,0.00,,,-99.99,,2013-02-11 16:52:00,
2013-02-11 11:02:00,32.0,23.0,-100.00,WNW,285,7.0,17.0,69,0.00,,,-99.99,,2013-02-11 17:02:00,
2013-02-11 11:11:00,32.0,23.0,-100.00,WNW,285,7.0,17.0,69,0.00,,,-99.99,,2013-02-11 17:11:00,
2013-02-11 11:22:00,32.0,23.0,-100.00,WNW,285,7.0,17.0,69,0.00,,,-99.99,,2013-02-11 17:22:00,
2013-02-11 11:32:00,32.0,22.0,-100.00,WNW,290,5.0,15.0,66,0.00,,,-99.99,,2013-02-11 17:32:00,
2013-02-11 11:53:00,32.0,22.0,-100.00,WNW,290,5.0,15.0,66,0.00,,,-99.99,,2013-02-11 17:53:00,
2013-02-11 12:02:00,32.0,22.0,-100.00,WNW,290,5.0,15.0,66,0.00,,,-99.99,,2013-02-11 18:02:00,
2013-02-11 12:11:00,32.0,22.0,-100.00,WNW,290,5.0,15.0,66,0.00,,,-99.99,,2013-02-11 18:11:00,
2013-02-11 12:21:00,32.0,22.0,-100.00,WNW,290,5.0,15.0,66,0.00,,,-99.99,,2013-02-11 18:21:00,
2013-02-11 12:53:00,30.0,21.0,-100.00,WNW,290,7.0,17.0,70,0.00,,,-99.99,,2013-02-11 18:53:00,
2013-02-11 13:02:00,30.0,21.0,-100.00,WNW,290,7.0,17.0,70,0.00,,,-99.99,,2013-02-11 19:02:00,
2013-02-11 13:11:00,30.0,21.0,-100.00,WNW,290,7.0,17.0,70,0.00,,,-99.99,,2013-02-11 19:11:00,
2013-02-11 13:21:00,30.0,21.0,-100.00,WNW,290,7.0,17.0,70,0.00,,,-99.99,,2013-02-11 19:21:00,
2013-02-11 13:52:00,29.0,20.0,-100.00,West,280,7.0,22.0,67,0.00,,,-99.99,,2013-02-11 19:52:00,
2013-02-11 14:01:00,29.0,20.0,-100.00,West,280,7.0,22.0,67,0.00,,,-99.99,,2013-02-11 20:01:00,
2013-02-11 14:11:00,29.0,20.0,-100.00,West,280,7.0,22.0,67,0.00,,,-99.99,,2013-02-11 20:11:00,
2013-02-11 14:21:00,29.0,20.0,-100.00,West,280,7.0,22.0,67,0.00,,,-99.99,,2013-02-11 20:21:00,
2013-02-11 14:52:00,28.0,16.0,-100.00,WNW,300,9.0,22.0,60,0.00,,,-99.99,,2013-02-11 20:52:00,
2013-02-11 15:52:00,27.0,15.0,-100.00,WNW,290,11.0,24.0,62,0.00,,,-99.99,,2013-02-11 21:52:00,
2013-02-11 16:02:00,27.0,15.0,-100.00,WNW,290,11.0,24.0,62,0.00,,,-99.99,,2013-02-11 22:02:00,
2013-02-11 16:11:00,27.0,15.0,-100.00,WNW,290,11.0,24.0,62,0.00,,,-99.99,,2013-02-11 22:11:00,
2013-02-11 16:22:00,27.0,15.0,-100.00,WNW,290,11.0,24.0,62,0.00,,,-99.99,,2013-02-11 22:22:00,
2013-02-11 16:52:00,27.0,13.0,-100.00,WNW,290,5.0,15.0,56,0.00,,,-99.99,,2013-02-11 22:52:00,
2013-02-11 17:52:00,26.0,12.0,-100.00,NW,315,6.0,19.0,55,0.00,,,-99.99,,2013-02-11 23:52:00,
2013-02-11 18:52:00,26.0,12.0,-100.00,West,275,5.0,12.0,55,0.00,,,-99.99,,2013-02-12 00:52:00,
2013-02-11 19:02:00,26.0,12.0,-100.00,West,275,5.0,12.0,55,0.00,,,-99.99,,2013-02-12 01:02:00,
2013-02-11 19:11:00,26.0,12.0,-100.00,West,275,5.0,12.0,55,0.00,,,-99.99,,2013-02-12 01:11:00,
2013-02-11 19:22:00,26.0,12.0,-100.00,West,275,5.0,12.0,55,0.00,,,-99.99,,2013-02-12 01:22:00,
2013-02-11 19:52:00,25.0,12.0,-100.00,NW,310,7.0,16.0,58,0.00,,,-99.99,,2013-02-12 01:52:00,
2013-02-11 20:02:00,25.0,12.0,-100.00,NW,310,7.0,16.0,58,0.00,,,-99.99,,2013-02-12 02:02:00,
2013-02-11 20:12:00,25.0,12.0,-100.00,NW,310,7.0,16.0,58,0.00,,,-99.99,,2013-02-12 02:12:00,
2013-02-11 20:21:00,25.0,12.0,-100.00,NW,310,7.0,16.0,58,0.00,,,-99.99,,2013-02-12 02:21:00,
2013-02-11 20:53:00,25.0,11.0,-100.00,NW,315,5.0,14.0,54,0.00,,,-99.99,,2013-02-12 02:53:00,
2013-02-11 21:52:00,25.0,11.0,-100.00,NW,310,4.0,17.0,54,0.00,,,-99.99,,2013-02-12 03:52:00,
2013-02-11 22:52:00,25.0,11.0,-100.00,NW,310,6.0,12.0,54,0.00,,,-99.99,,2013-02-12 04:52:00,
2013-02-11 23:52:00,24.0,10.0,-100.00,WNW,300,4.0,11.0,54,0.00,,,-99.99,,2013-02-12 05:52:00,